createdAt,value
2023-11-05T00:00:15.397Z,29.07
2023-11-05T00:04:19.575Z,29.33
2023-11-05T00:08:23.090Z,27.63
2023-11-05T00:12:28.241Z,26.83
2023-11-05T00:16:31.719Z,26.57
2023-11-05T00:20:38.041Z,30.63
2023-11-05T00:25:07.020Z,26.80
2023-11-05T00:29:16.136Z,27.40
2023-11-05T00:33:20.105Z,27.97
2023-11-05T00:37:24.253Z,27.47
2023-11-05T00:41:27.763Z,24.40
2023-11-05T00:45:32.956Z,26.70
2023-11-05T00:49:40.602Z,27.17
2023-11-05T00:53:44.771Z,30.70
2023-11-05T00:57:48.553Z,26.20
2023-11-05T01:01:53.633Z,25.17
2023-11-05T01:05:57.637Z,24.20
2023-11-05T01:10:01.116Z,24.00
2023-11-05T01:14:05.014Z,26.80
2023-11-05T01:18:10.632Z,26.73
2023-11-05T01:22:14.594Z,25.67
2023-11-05T01:26:33.834Z,25.03
2023-11-05T01:30:38.412Z,26.30
2023-11-05T01:34:43.710Z,25.37
2023-11-05T01:38:47.274Z,27.10
2023-11-05T01:42:54.025Z,25.63
2023-11-05T01:46:58.058Z,24.47
2023-11-05T01:51:10.269Z,23.97
2023-11-05T01:55:14.493Z,23.87
2023-11-05T01:59:18.394Z,25.00
2023-11-05T02:03:22.014Z,25.40
2023-11-05T02:07:26.849Z,23.90
2023-11-05T02:11:30.491Z,26.20
2023-11-05T02:15:34.115Z,24.70
2023-11-05T02:19:38.666Z,24.60
2023-11-05T02:23:44.072Z,23.10
2023-11-05T02:27:51.108Z,23.20
2023-11-05T02:31:54.976Z,25.93
2023-11-05T02:35:58.355Z,25.60
2023-11-05T02:40:07.271Z,24.90
2023-11-05T02:44:12.092Z,23.23
2023-11-05T02:48:16.034Z,25.33
2023-11-05T02:52:19.717Z,23.50
2023-11-05T02:56:24.579Z,24.70
2023-11-05T03:00:29.726Z,24.23
2023-11-05T03:04:33.612Z,25.87
2023-11-05T03:08:37.617Z,24.47
2023-11-05T03:12:43.472Z,23.53
2023-11-05T03:16:47.417Z,26.00
2023-11-05T03:20:50.981Z,24.80
2023-11-05T03:24:54.466Z,23.50
2023-11-05T03:28:59.673Z,25.10
2023-11-05T03:33:05.939Z,24.20
2023-11-05T03:37:09.909Z,23.57
2023-11-05T03:41:13.677Z,23.33
2023-11-05T03:45:21.040Z,23.73
2023-11-05T03:49:44.129Z,24.40
2023-11-05T03:53:49.284Z,25.37
2023-11-05T03:57:53.095Z,24.23
2023-11-05T04:01:58.054Z,23.80
2023-11-05T04:06:01.701Z,23.30
2023-11-05T04:10:08.692Z,23.97
2023-11-05T04:14:12.316Z,25.50
2023-11-05T04:18:17.636Z,22.57
2023-11-05T04:22:21.214Z,22.53
2023-11-05T04:26:25.327Z,26.77
2023-11-05T04:30:28.737Z,25.93
2023-11-05T04:34:34.095Z,23.20
2023-11-05T04:38:38.940Z,23.10
2023-11-05T04:42:42.427Z,24.40
2023-11-05T04:46:45.939Z,21.70
2023-11-05T04:50:50.980Z,23.53
2023-11-05T04:54:56.304Z,23.90
2023-11-05T04:59:00.253Z,22.47
2023-11-05T05:03:07.043Z,23.73
2023-11-05T05:07:12.022Z,24.90
2023-11-05T05:11:16.201Z,23.70
2023-11-05T05:15:19.719Z,24.30
2023-11-05T05:19:23.319Z,25.20
2023-11-05T05:23:28.569Z,23.07
2023-11-05T05:27:32.240Z,24.50
2023-11-05T05:31:39.654Z,24.73
2023-11-05T05:35:43.621Z,23.93
2023-11-05T05:39:50.249Z,40.23
2023-11-05T05:43:59.593Z,21.47
2023-11-05T05:48:03.749Z,23.03
2023-11-05T05:52:08.210Z,21.90
2023-11-05T05:56:14.196Z,23.27
2023-11-05T06:00:18.742Z,21.90
2023-11-05T06:04:22.235Z,21.20
2023-11-05T06:08:25.711Z,21.73
2023-11-05T06:12:30.906Z,23.10
2023-11-05T06:16:34.666Z,26.17
2023-11-05T06:20:39.667Z,22.00
2023-11-05T06:24:44.637Z,22.07
2023-11-05T06:28:52.588Z,23.53
2023-11-05T06:33:04.660Z,22.00
2023-11-05T06:37:09.098Z,22.50
2023-11-05T06:41:12.657Z,21.80
2023-11-05T06:45:18.709Z,21.97
2023-11-05T06:49:22.107Z,22.97
2023-11-05T06:53:26.528Z,23.03
2023-11-05T06:57:30.210Z,23.23
2023-11-05T07:01:35.090Z,22.07
2023-11-05T07:05:39.564Z,25.03
2023-11-05T07:09:42.973Z,24.43
2023-11-05T07:13:47.936Z,23.83
2023-11-05T07:17:52.994Z,21.50
2023-11-05T07:21:57.949Z,24.33
2023-11-05T07:26:02.929Z,22.03
2023-11-05T07:30:07.299Z,21.50
2023-11-05T07:34:12.866Z,24.77
2023-11-05T07:38:19.148Z,22.50
2023-11-05T07:46:43.455Z,24.00
2023-11-05T07:50:58.589Z,22.07
2023-11-05T07:55:04.271Z,21.40
2023-11-05T07:59:12.309Z,23.30
2023-11-05T08:03:17.435Z,22.03
2023-11-05T08:07:28.394Z,23.77
2023-11-05T08:11:38.774Z,24.10
2023-11-05T08:15:50.972Z,23.50
2023-11-05T08:19:57.141Z,22.60
2023-11-05T08:24:04.137Z,21.50
2023-11-05T08:28:19.638Z,21.37
2023-11-05T08:32:32.123Z,21.77
2023-11-05T08:36:43.254Z,21.20
2023-11-05T08:40:51.337Z,22.63
2023-11-05T08:45:01.011Z,21.97
2023-11-05T08:49:15.353Z,24.87
2023-11-05T08:53:28.624Z,21.20
2023-11-05T08:57:40.986Z,33.13
2023-11-05T09:01:47.319Z,21.20
2023-11-05T09:05:56.484Z,23.07
2023-11-05T09:10:04.952Z,21.47
2023-11-05T09:14:14.904Z,29.40
2023-11-05T09:18:27.971Z,22.57
2023-11-05T09:22:33.360Z,21.83
2023-11-05T09:26:44.147Z,24.50
2023-11-05T09:30:55.984Z,21.10
2023-11-05T09:35:00.715Z,21.40
2023-11-05T09:39:10.065Z,23.00
2023-11-05T09:43:15.866Z,20.93
2023-11-05T09:47:24.952Z,22.07
2023-11-05T09:51:36.154Z,21.40
2023-11-05T09:55:43.302Z,21.20
2023-11-05T09:59:49.547Z,21.33
2023-11-05T10:03:56.408Z,20.20
2023-11-05T10:08:03.290Z,20.40
2023-11-05T10:12:30.572Z,20.30
2023-11-05T10:16:40.797Z,19.67
2023-11-05T10:20:56.855Z,20.73
2023-11-05T10:25:08.418Z,18.30
2023-11-05T10:29:17.270Z,18.07
2023-11-05T10:33:22.632Z,18.17
2023-11-05T10:37:30.295Z,17.37
2023-11-05T10:41:41.007Z,16.53
2023-11-05T10:45:46.629Z,17.67
2023-11-05T10:50:02.440Z,15.50
2023-11-05T10:54:10.667Z,16.10
2023-11-05T10:58:24.573Z,15.80
2023-11-05T11:02:51.277Z,15.73
2023-11-05T11:07:00.205Z,16.70
2023-11-05T11:11:16.982Z,15.80
2023-11-05T11:15:37.689Z,14.50
2023-11-05T11:19:44.520Z,14.03
2023-11-05T11:23:51.563Z,13.27
2023-11-05T11:28:06.324Z,12.30
2023-11-05T11:32:17.752Z,11.60
2023-11-05T11:36:29.881Z,10.63
2023-11-05T11:40:46.484Z,10.30
2023-11-05T11:44:55.428Z,9.73
2023-11-05T11:49:12.946Z,10.83
2023-11-05T11:53:31.552Z,9.80
2023-11-05T11:57:42.710Z,9.93
2023-11-05T12:01:54.010Z,11.03
2023-11-05T12:06:07.793Z,10.00
2023-11-05T12:10:19.112Z,9.40
2023-11-05T12:14:32.423Z,9.97
2023-11-05T12:18:46.483Z,9.03
2023-11-05T12:22:56.428Z,10.30
2023-11-05T12:27:05.107Z,8.97
2023-11-05T12:31:10.581Z,9.00
2023-11-05T12:35:22.351Z,9.10
2023-11-05T12:39:31.628Z,8.80
2023-11-05T12:43:57.148Z,8.90
2023-11-05T12:48:05.425Z,8.67
2023-11-05T12:52:13.829Z,8.23
2023-11-05T12:56:21.314Z,8.60
2023-11-05T13:00:26.126Z,9.30
2023-11-05T13:04:36.348Z,10.60
2023-11-05T13:08:53.353Z,12.50
2023-11-05T13:12:57.062Z,11.57
2023-11-05T13:17:06.214Z,15.50
2023-11-05T13:21:14.174Z,13.93
2023-11-05T13:25:25.934Z,18.53
2023-11-05T13:29:32.998Z,20.00
2023-11-05T13:33:45.967Z,13.80
2023-11-05T13:37:51.253Z,14.07
2023-11-05T13:41:56.183Z,14.70
2023-11-05T13:45:59.953Z,15.30
2023-11-05T13:50:04.079Z,16.10
2023-11-05T13:54:08.139Z,17.00
2023-11-05T13:58:14.629Z,33.40
2023-11-05T14:02:20.642Z,23.67
2023-11-05T14:06:24.349Z,18.80
2023-11-05T14:10:27.916Z,19.70
2023-11-05T14:14:36.769Z,19.77
2023-11-05T14:18:40.407Z,20.87
2023-11-05T14:22:44.516Z,21.20
2023-11-05T14:26:49.050Z,20.07
2023-11-05T14:30:54.363Z,19.80
2023-11-05T14:34:58.290Z,19.70
2023-11-05T14:39:02.593Z,19.10
2023-11-05T14:43:08.077Z,21.40
2023-11-05T14:47:15.163Z,19.83
2023-11-05T14:51:19.037Z,20.87
2023-11-05T14:55:23.443Z,21.40
2023-11-05T14:59:28.528Z,34.23
2023-11-05T15:03:35.722Z,23.67
2023-11-05T15:07:42.125Z,24.30
2023-11-05T15:11:48.778Z,21.30
2023-11-05T15:15:54.599Z,21.57
2023-11-05T15:20:12.788Z,21.00
2023-11-05T15:24:16.976Z,23.57
2023-11-05T15:28:25.280Z,21.33
2023-11-05T15:32:29.684Z,21.37
2023-11-05T15:36:36.315Z,24.53
2023-11-05T15:40:41.336Z,22.17
2023-11-05T15:44:49.469Z,30.33
2023-11-05T15:49:00.553Z,24.90
2023-11-05T15:53:07.320Z,25.20
2023-11-05T15:57:11.477Z,23.33
2023-11-05T16:01:16.501Z,23.30
2023-11-05T16:05:20.688Z,25.00
2023-11-05T16:09:26.728Z,27.30
2023-11-05T16:13:33.555Z,24.43
2023-11-05T16:17:41.155Z,25.03
2023-11-05T16:21:47.382Z,23.53
2023-11-05T16:25:54.430Z,26.40
2023-11-05T16:30:01.096Z,25.00
2023-11-05T16:34:06.040Z,25.87
2023-11-05T16:38:11.987Z,24.80
2023-11-05T16:42:21.705Z,26.70
2023-11-05T16:46:27.418Z,26.23
2023-11-05T16:50:39.257Z,29.07
2023-11-05T16:54:45.841Z,29.80
2023-11-05T16:58:52.542Z,25.77
2023-11-05T17:02:58.015Z,28.20
2023-11-05T17:07:08.197Z,27.43
2023-11-05T17:11:14.303Z,27.53
2023-11-05T17:15:22.246Z,31.20
2023-11-05T17:19:28.080Z,26.80
2023-11-05T17:23:34.898Z,26.87
2023-11-05T17:27:39.923Z,26.83
2023-11-05T17:31:47.882Z,26.00
2023-11-05T17:35:54.377Z,28.27
2023-11-05T17:40:05.173Z,28.83
2023-11-05T17:44:11.097Z,27.83
2023-11-05T17:48:18.842Z,28.37
2023-11-05T17:52:26.377Z,28.50
2023-11-05T17:56:33.757Z,28.17
2023-11-05T18:00:41.207Z,28.30
2023-11-05T18:04:49.075Z,28.30
2023-11-05T18:08:57.532Z,29.90
2023-11-05T18:13:04.866Z,33.90
2023-11-05T18:17:16.483Z,32.77
2023-11-05T18:21:24.809Z,34.53
2023-11-05T18:25:32.811Z,30.10
2023-11-05T18:29:41.035Z,32.60
2023-11-05T18:33:48.544Z,33.53
2023-11-05T18:38:00.849Z,32.17
2023-11-05T18:42:10.604Z,32.80
2023-11-05T18:46:23.207Z,33.27
2023-11-05T18:50:28.796Z,32.37
2023-11-05T18:54:36.984Z,32.47
2023-11-05T18:58:42.595Z,31.03
2023-11-05T19:02:54.662Z,31.13
2023-11-05T19:07:03.138Z,34.20
2023-11-05T19:11:11.067Z,31.23
2023-11-05T19:15:19.542Z,30.90
2023-11-05T19:19:26.913Z,30.20
2023-11-05T19:23:36.157Z,32.77
2023-11-05T19:27:44.559Z,32.40
2023-11-05T19:31:54.085Z,38.17
2023-11-05T19:36:01.390Z,36.80
2023-11-05T19:40:08.257Z,33.47
2023-11-05T19:44:18.321Z,34.63
2023-11-05T19:48:26.815Z,39.63
2023-11-05T19:52:33.363Z,40.17
2023-11-05T19:56:41.249Z,38.23
2023-11-05T20:00:48.498Z,37.17
2023-11-05T20:04:55.772Z,37.40
2023-11-05T20:09:04.178Z,36.50
2023-11-05T20:13:10.504Z,34.07
2023-11-05T20:17:19.212Z,37.23
2023-11-05T20:21:29.982Z,36.13
2023-11-05T20:25:43.180Z,40.10
2023-11-05T20:29:49.465Z,35.97
2023-11-05T20:33:56.255Z,33.83
2023-11-05T20:38:03.343Z,34.83
2023-11-05T20:42:09.642Z,33.57
2023-11-05T20:46:17.144Z,36.23
2023-11-05T20:50:23.740Z,35.80
2023-11-05T20:54:33.644Z,35.47
2023-11-05T20:58:41.677Z,31.80
2023-11-05T21:02:48.701Z,33.30
2023-11-05T21:06:55.376Z,31.40
2023-11-05T21:11:08.954Z,37.03
2023-11-05T21:15:16.901Z,37.57
2023-11-05T21:19:22.591Z,31.60
2023-11-05T21:23:28.223Z,32.97
2023-11-05T21:27:36.033Z,30.83
2023-11-05T21:31:42.872Z,31.50
2023-11-05T21:35:47.352Z,29.57
2023-11-05T21:39:52.780Z,29.47
2023-11-05T21:43:56.388Z,30.23
2023-11-05T21:48:00.345Z,33.47
2023-11-05T21:52:05.540Z,30.03
2023-11-05T21:56:11.615Z,29.90
2023-11-05T22:00:15.556Z,30.03
2023-11-05T22:04:19.116Z,28.10
2023-11-05T22:08:24.996Z,28.50
2023-11-05T22:12:30.016Z,36.47
2023-11-05T22:16:34.608Z,29.23
2023-11-05T22:20:38.721Z,30.33
2023-11-05T22:24:42.124Z,27.40
2023-11-05T22:28:47.773Z,27.97
2023-11-05T22:32:52.340Z,28.87
2023-11-05T22:36:56.030Z,30.67
2023-11-05T22:40:59.584Z,30.50
2023-11-05T22:45:06.429Z,26.77
2023-11-05T22:49:15.171Z,25.00
2023-11-05T22:53:23.083Z,25.43
2023-11-05T22:57:27.575Z,24.80
2023-11-05T23:01:34.844Z,27.10
2023-11-05T23:05:39.273Z,25.40
2023-11-05T23:09:42.769Z,25.10
2023-11-05T23:13:46.708Z,25.37
2023-11-05T23:17:51.595Z,24.97
2023-11-05T23:21:55.039Z,25.63
2023-11-05T23:25:58.404Z,27.00
2023-11-05T23:30:03.402Z,24.90
2023-11-05T23:34:08.896Z,24.87
2023-11-05T23:38:12.624Z,24.77
2023-11-05T23:42:17.080Z,25.50
2023-11-05T23:46:23.349Z,27.93
2023-11-05T23:50:28.160Z,27.80
2023-11-05T23:54:33.160Z,24.67
2023-11-05T23:58:39.286Z,25.10
